Thursday, November 23, 2017, 4:32 AM EST
Back to Local

KNGU, Norfolk, Naval Air Station

Location: Norfolk, VA, United States Lat: 36.934
Local Time: 4:32 AM EST ( 9:32 GMT) Lon: -76.296
Time Zone: US/Eastern Elev: 13 ft

Show me the last for .
Show Decoded

2017-11-23 03:59 METAR KNGU 230859Z AUTO 34009KT 10SM CLR 04/M02 A3016 RMK AO2 SLP213 T00441017
                 56005 $ =
2017-11-23 02:59 METAR KNGU 230759Z AUTO 34007KT 10SM CLR 05/M02 A3017 RMK AO2 SLP216 T00501017 $
                 =
2017-11-23 01:59 METAR KNGU 230659Z AUTO 36010KT 10SM CLR 06/M02 A3016 RMK AO2 SLP214 T00561017 $
                 =
2017-11-23 00:59 METAR KNGU 230559Z AUTO 35010KT 10SM CLR 06/M02 A3017 RMK AO2 SLP218 T00611017
                 10106 20061 50007 $ =
2017-11-22 23:59 METAR KNGU 230459Z 35011KT 10SM SCT280 07/M02 A3018 RMK AO2 SLP220 T00671017
                 401720067 $ =
2017-11-22 22:59 METAR KNGU 230359Z 35010KT 10SM SCT280 07/M02 A3017 RMK AO2 SLP215 T00721017 $ =
2017-11-22 21:59 METAR KNGU 230259Z 34013KT 10SM SCT280 08/M01 A3015 RMK SLP211 T00831006 52019 =
2017-11-22 20:59 METAR KNGU 230159Z 36015G21KT 10SM SCT280 09/00 A3014 RMK AO2 SLP205 T00940000 $
                 =
2017-11-22 19:59 METAR KNGU 230059Z 36014KT 10SM SCT280 10/00 A3011 RMK AO2 SLP197 T01000000 $ =
2017-11-22 18:59 METAR KNGU 222359Z 36013G23KT 10SM SCT280 11/01 A3010 RMK AO2 SLP192 T01060006
                 10172 20106 53031 $ =
2017-11-22 17:59 METAR KNGU 222259Z 36015G24KT 10SM SCT300 12/01 A3006 RMK AO2 SLP179 T01170011 $
                 =
2017-11-22 16:59 METAR KNGU 222159Z 01014KT 10SM FEW220 SCT300 13/03 A3003 RMK AO2 SLP167
                 T01280033 $ =
2017-11-22 15:59 METAR KNGU 222059Z 36009KT 10SM FEW040 SCT300 14/04 A3000 RMK AO2 SLP160
                 T01440039 53016 =
2017-11-22 14:59 METAR KNGU 221959Z 36010KT 10SM FEW045 SCT300 17/04 A2998 RMK AO2 SLP151
                 T01670044 =
2017-11-22 13:59 METAR KNGU 221859Z 35009KT 10SM FEW035 SCT300 17/07 A2996 RMK AO2 SLP145
                 T01720072 =
2017-11-22 12:59 METAR KNGU 221759Z 01009KT 10SM FEW030 SCT090 17/07 A2996 RMK AO2 SLP144 60000
                 T01670072 10167 20133 50004 =
2017-11-22 11:59 METAR KNGU 221659Z 35012KT 10SM FEW025 BKN070 16/08 A2996 RMK AO2 SLP146
                 T01560078 =
2017-11-22 10:59 METAR KNGU 221559Z 34010KT 10SM FEW021 BKN075 16/11 A2997 RMK AO2 SLP149
                 T01610106 =
2017-11-22 09:59 METAR KNGU 221459Z 27007KT 8SM FEW024 BKN055 BKN070 14/12 A2994 RMK SLP140 60000
                 T01440117 53006 =
2017-11-22 09:06 METAR KNGU 221406Z 31005KT 8SM SCT024 BKN033 BKN046 15/13 A2992 RMK T01500128 =
2017-11-22 08:59 METAR KNGU 221359Z 32006KT 8SM SCT021 BKN028 BKN045 14/12 A2992 RMK DZE11 SLP133
                 P0000 T01390122 =
2017-11-22 08:52 METAR KNGU 221352Z 31006KT 7SM FEW015 SCT021 BKN030 14/12 A2992 RMK DZE11 P0000
                 T01390122 =
2017-11-22 08:26 METAR KNGU 221326Z 30008KT 4SM BR BKN015 OVC020 14/12 A2993 RMK DZE11 P0000
                 T01390117 =
2017-11-22 07:59 METAR KNGU 221259Z COR 31008KT 6SM -DZ BR OVC013 14/12 A2994 RMK DZB55 SLP140
                 P0000 T01440117 =
2017-11-22 06:59 METAR KNGU 221159Z 27004KT 10SM SCT010 OVC050 15/14 A2993 RMK SLP133 60000
                 T01500122 10161 20150 55001 =
2017-11-22 05:59 METAR KNGU 221059Z 17005KT 10SM SCT035 BKN100 OVC150 16/14 A2991 RMK SLP126
                 T01610139 =
2017-11-22 04:59 METAR KNGU 220959Z 17005KT 10SM FEW040 BKN100 OVC250 16/14 A2992 RMK SLP130
                 T01610139 =

Support USWX by starting your Amazon purchase here.